Time;durP1;ratioP1;P1;durP2;ratioP2;P2;SDS_P1;SDS_P2;PMS_P1;PMS_P2;Temp;Humidity;BMP_temperature;BMP_pressure;BME280_temperature;BME280_humidity;BME280_pressure;Samples;Min_cycle;Max_cycle;Signal;HPM_P1;HPM_P2
2021/08/20 00:00:59;;;;;;;6.13;2.70;;;;;;;18.19;100.00;96461.78;4956687;29;20288;-82
2021/08/20 00:03:26;;;;;;;3.30;3.00;;;;;;;18.04;100.00;96465.41;4956173;29;20664;-82
2021/08/20 00:05:55;;;;;;;3.33;3.07;;;;;;;18.18;100.00;96476.09;4956448;29;20205;-82
2021/08/20 00:08:22;;;;;;;2.80;2.60;;;;;;;18.17;100.00;96471.81;4956076;29;20679;-83
2021/08/20 00:10:50;;;;;;;2.80;2.60;;;;;;;18.18;100.00;96468.13;4956327;29;20612;-82
2021/08/20 00:13:17;;;;;;;3.30;3.00;;;;;;;18.15;100.00;96464.03;4955829;29;20206;-83
2021/08/20 00:15:45;;;;;;;2.93;2.70;;;;;;;18.08;100.00;96470.34;4956412;29;20233;-82
2021/08/20 00:18:12;;;;;;;3.03;2.83;;;;;;;18.13;100.00;96468.72;4956281;29;20206;-83
2021/08/20 00:20:40;;;;;;;4.37;3.00;;;;;;;18.14;100.00;96473.03;4956088;29;20208;-83
2021/08/20 00:23:08;;;;;;;3.17;2.87;;;;;;;18.00;100.00;96474.00;4955847;29;20652;-82
2021/08/20 00:25:36;;;;;;;2.67;2.47;;;;;;;18.21;100.00;96475.69;4955703;29;20208;-82
2021/08/20 00:28:03;;;;;;;3.37;3.07;;;;;;;18.21;100.00;96481.84;4955756;29;20212;-82
2021/08/20 00:30:30;;;;;;;3.90;3.30;;;;;;;18.08;100.00;96488.97;4956159;29;20280;-82
2021/08/20 00:32:57;;;;;;;4.20;2.60;;;;;;;18.07;100.00;96477.50;4955660;28;20228;-82
2021/08/20 00:35:25;;;;;;;4.27;2.77;;;;;;;18.11;100.00;96481.41;4955566;29;20686;-82
2021/08/20 00:37:52;;;;;;;3.60;3.30;;;;;;;18.10;100.00;96489.59;4955982;28;20198;-82
2021/08/20 00:40:21;;;;;;;4.90;2.70;;;;;;;18.06;100.00;96481.19;4955715;29;20679;-82
2021/08/20 00:42:49;;;;;;;2.67;2.47;;;;;;;18.07;100.00;96480.16;4955291;28;20233;-82
2021/08/20 00:45:16;;;;;;;4.80;2.80;;;;;;;18.05;100.00;96483.03;4955478;28;20198;-82
2021/08/20 00:47:43;;;;;;;3.23;3.03;;;;;;;17.87;100.00;96480.09;4955742;29;20293;-82
2021/08/20 00:50:11;;;;;;;3.30;3.00;;;;;;;17.79;100.00;96481.09;4955487;29;20208;-82
2021/08/20 00:52:39;;;;;;;3.00;2.77;;;;;;;17.83;100.00;96481.50;4955349;28;20236;-82
2021/08/20 00:55:09;;;;;;;3.17;2.83;;;;;;;17.82;100.00;96483.34;4955200;29;20762;-82
2021/08/20 00:57:38;;;;;;;4.97;2.67;;;;;;;17.76;100.00;96489.47;4955259;28;20671;-83
2021/08/20 01:00:07;;;;;;;2.63;2.43;;;;;;;17.91;100.00;96485.81;4954764;28;20202;-82
2021/08/20 01:02:34;;;;;;;3.47;2.63;;;;;;;17.97;100.00;96483.19;4955155;29;20208;-82
2021/08/20 01:05:02;;;;;;;2.50;2.30;;;;;;;17.76;100.00;96484.13;4955610;29;20224;-82
2021/08/20 01:07:30;;;;;;;2.60;2.40;;;;;;;17.63;100.00;96478.75;4955056;29;20206;-82
2021/08/20 01:09:58;;;;;;;5.37;2.67;;;;;;;17.50;100.00;96468.06;4955167;29;20205;-82
2021/08/20 01:12:25;;;;;;;2.73;2.53;;;;;;;17.44;100.00;96463.53;4955102;28;20229;-82
2021/08/20 01:14:53;;;;;;;2.93;2.73;;;;;;;17.46;100.00;96461.50;4955345;28;20197;-82
2021/08/20 01:17:21;;;;;;;2.73;2.53;;;;;;;17.47;100.00;96463.97;4954811;29;20297;-82
2021/08/20 01:19:49;;;;;;;6.33;2.97;;;;;;;17.53;100.00;96467.66;4954816;29;20202;-82
2021/08/20 01:22:16;;;;;;;2.90;2.70;;;;;;;17.49;100.00;96461.09;4954672;29;20198;-82
2021/08/20 01:24:46;;;;;;;3.20;2.90;;;;;;;17.37;100.00;96460.03;4954917;29;20212;-82
2021/08/20 01:27:16;;;;;;;4.03;2.50;;;;;;;17.48;100.00;96464.78;4954734;28;20639;-82
2021/08/20 01:29:43;;;;;;;3.87;3.57;;;;;;;17.47;100.00;96465.78;4955144;28;20325;-82
2021/08/20 01:32:11;;;;;;;2.83;2.63;;;;;;;17.44;100.00;96467.00;4954818;29;20268;-82
2021/08/20 01:34:38;;;;;;;3.10;2.90;;;;;;;17.46;100.00;96458.84;4955073;28;20210;-82
2021/08/20 01:37:05;;;;;;;3.70;3.40;;;;;;;17.45;100.00;96473.13;4954758;28;20205;-82
2021/08/20 01:39:33;;;;;;;2.60;2.40;;;;;;;17.50;100.00;96474.19;4954760;29;20202;-82
2021/08/20 01:42:00;;;;;;;3.10;2.80;;;;;;;17.34;100.00;96464.69;4954260;29;20238;-82
2021/08/20 01:44:28;;;;;;;3.17;2.87;;;;;;;17.24;100.00;96461.56;4954232;29;20190;-82
2021/08/20 01:46:56;;;;;;;3.50;2.97;;;;;;;17.31;100.00;96464.28;4954111;29;20202;-82
2021/08/20 01:49:23;;;;;;;3.23;2.77;;;;;;;17.25;100.00;96471.19;4954687;28;20201;-82
2021/08/20 01:51:50;;;;;;;3.03;2.83;;;;;;;17.15;100.00;96462.75;4954507;29;20230;-82
2021/08/20 01:54:17;;;;;;;3.03;2.73;;;;;;;17.15;100.00;96473.38;4954677;29;20209;-82
2021/08/20 01:56:45;;;;;;;2.57;2.47;;;;;;;17.04;100.00;96468.59;4954270;28;20212;-82
2021/08/20 01:59:12;;;;;;;4.70;3.10;;;;;;;16.95;100.00;96472.44;4954322;29;20219;-82
2021/08/20 02:01:41;;;;;;;3.20;2.97;;;;;;;16.98;100.00;96469.38;4954256;29;20253;-81
2021/08/20 02:04:08;;;;;;;3.67;2.77;;;;;;;16.87;100.00;96465.44;4954488;28;20209;-81
2021/08/20 02:06:35;;;;;;;4.13;3.40;;;;;;;16.92;100.00;96472.81;4953915;29;20210;-81
2021/08/20 02:09:02;;;;;;;2.83;2.63;;;;;;;17.17;100.00;96467.88;4954109;28;20201;-81
2021/08/20 02:11:30;;;;;;;2.80;2.60;;;;;;;17.22;100.00;96466.28;4953275;28;20202;-81
2021/08/20 02:13:57;;;;;;;2.60;2.40;;;;;;;17.10;100.00;96462.50;4954304;28;20255;-81
2021/08/20 02:16:24;;;;;;;2.80;2.60;;;;;;;17.06;100.00;96463.91;4954099;29;20225;-81
2021/08/20 02:18:53;;;;;;;2.40;2.20;;;;;;;16.96;100.00;96472.22;4954137;29;20595;-81
2021/08/20 02:21:20;;;;;;;2.80;2.60;;;;;;;16.82;100.00;96465.19;4953965;28;20205;-81
2021/08/20 02:23:47;;;;;;;3.17;2.87;;;;;;;16.82;100.00;96465.19;4953564;29;20211;-81
2021/08/20 02:26:15;;;;;;;4.57;2.70;;;;;;;16.79;100.00;96465.56;4954033;29;20210;-81
2021/08/20 02:28:42;;;;;;;2.97;2.67;;;;;;;16.79;100.00;96463.72;4953779;28;20213;-81
2021/08/20 02:31:09;;;;;;;3.77;3.37;;;;;;;16.94;100.00;96462.81;4953954;28;20215;-80
2021/08/20 02:33:40;;;;;;;5.03;2.87;;;;;;;16.86;100.00;96463.78;4953626;29;20265;-81
2021/08/20 02:36:08;;;;;;;3.63;3.33;;;;;;;16.96;100.00;96464.25;4954141;29;20279;-81
2021/08/20 02:38:36;;;;;;;2.97;2.77;;;;;;;16.96;100.00;96455.47;4953920;29;20200;-81
2021/08/20 02:41:03;;;;;;;3.10;2.90;;;;;;;16.88;100.00;96469.72;4953615;29;20209;-81
2021/08/20 02:43:30;;;;;;;3.50;3.20;;;;;;;16.82;100.00;96473.97;4953471;29;20773;-82
2021/08/20 02:45:58;;;;;;;2.90;2.70;;;;;;;16.80;100.00;96464.53;4953853;29;20194;-81
2021/08/20 02:48:25;;;;;;;3.50;3.20;;;;;;;16.61;100.00;96464.16;4980115;28;20291;-79
2021/08/20 02:50:52;;;;;;;5.50;2.63;;;;;;;16.59;100.00;96466.22;4991929;28;20577;-79
2021/08/20 02:53:21;;;;;;;3.60;2.47;;;;;;;16.68;100.00;96469.53;4980096;28;20696;-80
2021/08/20 02:55:48;;;;;;;4.00;3.70;;;;;;;16.63;100.00;96472.78;4972863;28;20206;-79
2021/08/20 02:58:15;;;;;;;5.00;3.70;;;;;;;16.58;100.00;96471.69;4972576;28;20203;-79
2021/08/20 03:00:43;;;;;;;4.37;3.43;;;;;;;16.40;100.00;96470.31;4972529;28;20209;-79
2021/08/20 03:03:11;;;;;;;4.57;3.80;;;;;;;16.30;100.00;96476.94;4972569;28;20205;-80
2021/08/20 03:05:38;;;;;;;3.90;3.60;;;;;;;16.29;100.00;96477.97;4972844;28;20204;-79
2021/08/20 03:08:06;;;;;;;3.70;3.17;;;;;;;16.31;100.00;96475.94;4972556;28;20218;-79
2021/08/20 03:10:35;;;;;;;4.10;3.20;;;;;;;16.23;100.00;96474.22;4972506;28;20283;-81
2021/08/20 03:13:02;;;;;;;4.10;3.70;;;;;;;16.43;100.00;96476.25;4972180;28;20224;-79
2021/08/20 03:15:30;;;;;;;7.07;4.23;;;;;;;16.33;100.00;96480.03;4972653;28;20213;-80
2021/08/20 03:17:57;;;;;;;3.47;3.20;;;;;;;16.07;100.00;96480.59;4973010;28;20585;-79
2021/08/20 03:20:24;;;;;;;4.33;3.57;;;;;;;16.20;100.00;96479.09;4972481;28;20728;-79
2021/08/20 03:22:51;;;;;;;6.63;4.20;;;;;;;16.11;100.00;96486.34;4977931;28;20288;-79
2021/08/20 03:25:18;;;;;;;6.13;4.27;;;;;;;16.25;100.00;96485.47;4977552;28;20199;-79
2021/08/20 03:27:47;;;;;;;4.80;4.07;;;;;;;16.29;100.00;96496.53;4976065;28;20208;-78
2021/08/20 03:30:15;;;;;;;7.40;4.30;;;;;;;16.19;100.00;96493.38;4976072;28;20200;-79
2021/08/20 03:32:42;;;;;;;7.83;4.57;;;;;;;16.14;100.00;96493.91;4975880;28;20319;-78
2021/08/20 03:35:10;;;;;;;5.27;4.43;;;;;;;16.07;100.00;96499.16;4976246;28;20223;-79
2021/08/20 03:37:40;;;;;;;5.10;3.87;;;;;;;16.01;100.00;96493.78;4975935;28;20206;-79
2021/08/20 03:40:08;;;;;;;4.70;3.83;;;;;;;16.10;100.00;96496.13;4975921;28;20208;-79
2021/08/20 03:42:35;;;;;;;6.40;3.87;;;;;;;15.99;100.00;96496.59;4975733;28;20321;-79
2021/08/20 03:45:04;;;;;;;4.70;4.30;;;;;;;16.15;100.00;96498.22;4975985;28;20217;-79
2021/08/20 03:47:31;;;;;;;8.23;4.70;;;;;;;15.95;100.00;96508.59;4975664;28;20214;-79
2021/08/20 03:49:59;;;;;;;5.40;4.10;;;;;;;15.99;100.00;96504.56;4975991;28;20202;-79
2021/08/20 03:52:26;;;;;;;4.67;4.27;;;;;;;16.02;100.00;96501.53;4975663;28;20714;-79
2021/08/20 03:54:53;;;;;;;4.63;4.03;;;;;;;16.06;100.00;96509.94;4976073;28;20209;-79
2021/08/20 03:57:20;;;;;;;6.90;4.43;;;;;;;15.89;100.00;96502.19;4975647;28;20211;-79
2021/08/20 03:59:47;;;;;;;11.70;4.43;;;;;;;15.92;100.00;96509.78;4975714;28;20209;-79
2021/08/20 04:02:16;;;;;;;4.47;4.07;;;;;;;15.95;100.00;96511.25;4975423;28;20218;-78
2021/08/20 04:04:43;;;;;;;5.17;4.37;;;;;;;15.88;100.00;96507.69;4976032;28;20210;-79
2021/08/20 04:07:10;;;;;;;8.40;4.73;;;;;;;15.81;100.00;96510.25;4975218;28;20213;-79
2021/08/20 04:09:38;;;;;;;4.57;4.17;;;;;;;15.90;100.00;96514.47;4975550;28;20768;-78
2021/08/20 04:12:06;;;;;;;4.63;4.07;;;;;;;15.96;100.00;96514.72;4975592;28;20219;-79
2021/08/20 04:14:33;;;;;;;6.40;4.20;;;;;;;16.03;100.00;96515.59;4975336;28;20207;-79
2021/08/20 04:17:00;;;;;;;6.37;4.33;;;;;;;16.00;100.00;96514.16;4975217;28;20294;-79
2021/08/20 04:19:29;;;;;;;9.37;5.27;;;;;;;15.96;100.00;96509.41;4975295;28;20294;-79
2021/08/20 04:21:56;;;;;;;6.83;5.13;;;;;;;15.79;100.00;96520.22;4975476;28;20241;-79
2021/08/20 04:24:23;;;;;;;6.90;5.00;;;;;;;15.95;100.00;96521.84;4975048;28;20202;-79
2021/08/20 04:26:51;;;;;;;7.67;4.47;;;;;;;16.09;100.00;96518.34;4975112;28;20294;-79
2021/08/20 04:29:18;;;;;;;6.40;5.37;;;;;;;16.09;100.00;96523.66;4975065;28;20206;-79
2021/08/20 04:31:45;;;;;;;7.00;5.40;;;;;;;16.17;100.00;96512.09;4975150;28;20210;-79
2021/08/20 04:34:12;;;;;;;7.43;5.60;;;;;;;16.23;100.00;96524.63;4974276;28;20313;-79
2021/08/20 04:36:41;;;;;;;6.03;4.97;;;;;;;16.26;100.00;96516.28;4975084;28;20216;-79
2021/08/20 04:39:08;;;;;;;6.80;5.23;;;;;;;16.14;100.00;96518.63;4974759;28;20614;-80
2021/08/20 04:41:35;;;;;;;5.70;5.20;;;;;;;15.99;100.00;96522.28;4974738;28;20702;-80
2021/08/20 04:44:03;;;;;;;5.60;5.00;;;;;;;16.05;100.00;96521.56;4974643;28;20207;-81
2021/08/20 04:46:30;;;;;;;16.20;5.67;;;;;;;15.99;100.00;96520.47;4974911;28;20203;-81
2021/08/20 04:48:57;;;;;;;11.07;5.80;;;;;;;16.17;100.00;96517.41;4973316;28;20203;-80
2021/08/20 04:51:24;;;;;;;14.97;6.87;;;;;;;16.33;100.00;96525.13;4974636;28;20211;-80
2021/08/20 04:53:53;;;;;;;10.03;6.10;;;;;;;16.27;100.00;96527.72;4974646;28;20232;-79
2021/08/20 04:56:20;;;;;;;6.60;5.60;;;;;;;16.44;100.00;96530.94;4974684;28;20250;-80
2021/08/20 04:58:48;;;;;;;9.17;5.13;;;;;;;16.45;100.00;96532.59;4974612;28;20198;-80
2021/08/20 05:01:16;;;;;;;7.03;4.90;;;;;;;16.54;100.00;96531.47;4974822;28;20238;-80
2021/08/20 05:03:43;;;;;;;7.67;5.57;;;;;;;16.64;100.00;96526.66;4974518;28;20646;-80
2021/08/20 05:06:13;;;;;;;5.63;5.03;;;;;;;16.65;100.00;96533.59;4974608;28;20200;-80
2021/08/20 05:08:40;;;;;;;6.20;4.70;;;;;;;16.70;100.00;96525.09;4974371;28;20201;-80
2021/08/20 05:11:10;;;;;;;5.03;4.50;;;;;;;16.87;100.00;96529.97;4974385;28;20292;-80
2021/08/20 05:13:38;;;;;;;11.03;5.33;;;;;;;16.90;100.00;96526.09;4974334;28;20607;-80
2021/08/20 05:16:06;;;;;;;12.13;5.80;;;;;;;16.91;100.00;96524.28;4974331;28;20295;-80
2021/08/20 05:18:34;;;;;;;6.23;5.57;;;;;;;16.96;100.00;96519.19;4974487;28;20211;-80
2021/08/20 05:21:01;;;;;;;5.10;4.60;;;;;;;16.89;100.00;96521.78;4974062;28;20207;-80
2021/08/20 05:23:28;;;;;;;6.03;5.13;;;;;;;17.04;100.00;96524.34;4973998;28;20207;-80
2021/08/20 05:25:56;;;;;;;6.07;4.63;;;;;;;17.16;100.00;96532.63;4974231;28;20215;-80
2021/08/20 05:28:24;;;;;;;4.83;4.40;;;;;;;17.18;100.00;96538.56;4973963;28;20682;-80
2021/08/20 05:30:51;;;;;;;6.77;4.30;;;;;;;17.27;100.00;96534.75;4974042;28;20223;-80
2021/08/20 05:33:19;;;;;;;4.57;4.17;;;;;;;17.43;100.00;96546.91;4973513;28;20236;-80
2021/08/20 05:35:47;;;;;;;5.70;5.17;;;;;;;17.65;100.00;96545.81;4973873;28;20702;-80
2021/08/20 05:38:15;;;;;;;5.03;4.47;;;;;;;17.77;100.00;96538.16;4974066;28;20197;-80
2021/08/20 05:40:42;;;;;;;5.70;5.00;;;;;;;17.87;100.00;96543.09;4974285;28;20204;-80
2021/08/20 05:43:09;;;;;;;5.20;4.27;;;;;;;18.07;100.00;96549.31;4973316;28;20260;-80
2021/08/20 05:45:38;;;;;;;6.57;4.40;;;;;;;18.25;100.00;96546.94;4973738;28;20738;-80
2021/08/20 05:48:07;;;;;;;5.40;4.70;;;;;;;18.36;100.00;96553.53;4973893;28;20286;-80
2021/08/20 05:50:34;;;;;;;6.37;4.33;;;;;;;18.48;100.00;96551.91;4973758;28;20200;-80
2021/08/20 05:53:02;;;;;;;4.37;3.97;;;;;;;18.63;100.00;96549.06;4973541;28;20225;-80
2021/08/20 05:55:31;;;;;;;6.83;4.40;;;;;;;18.74;100.00;96561.81;4973693;28;20229;-80
2021/08/20 05:57:58;;;;;;;4.23;3.80;;;;;;;18.89;100.00;96555.50;4973465;28;20205;-80
2021/08/20 06:00:26;;;;;;;6.00;4.90;;;;;;;19.08;100.00;96557.31;4973923;28;20680;-80
2021/08/20 06:02:55;;;;;;;4.47;3.70;;;;;;;19.20;100.00;96558.38;4973365;28;20201;-80
2021/08/20 06:05:22;;;;;;;5.77;4.20;;;;;;;19.34;100.00;96561.03;4973795;28;20208;-80
2021/08/20 06:07:49;;;;;;;7.93;3.97;;;;;;;19.51;100.00;96561.41;4973306;28;20682;-80
2021/08/20 06:10:17;;;;;;;4.40;3.93;;;;;;;19.62;100.00;96566.94;4973462;28;20193;-80
2021/08/20 06:12:44;;;;;;;4.80;4.43;;;;;;;19.73;100.00;96570.00;4973515;28;20584;-81
2021/08/20 06:15:13;;;;;;;5.07;4.67;;;;;;;19.78;100.00;96562.19;4973114;28;20203;-80
2021/08/20 06:17:41;;;;;;;6.33;3.40;;;;;;;20.00;100.00;96576.09;4973218;28;20212;-81
2021/08/20 06:20:11;;;;;;;3.97;3.67;;;;;;;20.13;100.00;96574.19;4973328;28;20670;-80
2021/08/20 06:22:38;;;;;;;6.17;3.90;;;;;;;20.24;100.00;96571.91;4973032;28;20191;-80
2021/08/20 06:25:06;;;;;;;5.47;3.70;;;;;;;20.32;100.00;96575.13;4973311;28;20215;-80
2021/08/20 06:27:33;;;;;;;4.17;3.87;;;;;;;20.52;100.00;96576.94;4973355;28;20223;-80
2021/08/20 06:30:01;;;;;;;3.90;3.60;;;;;;;20.72;100.00;96576.81;4973195;28;20284;-80
2021/08/20 06:32:28;;;;;;;3.70;3.40;;;;;;;20.79;100.00;96574.94;4972781;28;20211;-80
2021/08/20 06:34:55;;;;;;;3.40;3.10;;;;;;;20.96;100.00;96580.56;4973093;28;20221;-80
2021/08/20 06:37:24;;;;;;;5.57;3.87;;;;;;;21.13;100.00;96582.50;4972813;28;20192;-80
2021/08/20 06:39:51;;;;;;;5.80;3.57;;;;;;;21.38;100.00;96594.25;4973334;28;20284;-80
2021/08/20 06:42:18;;;;;;;4.83;3.67;;;;;;;21.56;100.00;96591.63;4972651;28;20288;-80
2021/08/20 06:44:45;;;;;;;5.70;3.40;;;;;;;21.70;100.00;96589.66;4972823;28;20197;-80
2021/08/20 06:47:13;;;;;;;3.83;3.53;;;;;;;21.96;100.00;96596.56;4972856;28;20216;-80
2021/08/20 06:49:40;;;;;;;6.03;4.57;;;;;;;22.07;100.00;96599.34;4973002;28;20204;-81
2021/08/20 06:52:09;;;;;;;3.63;3.33;;;;;;;22.13;100.00;96604.81;4972837;28;20670;-80
2021/08/20 06:54:37;;;;;;;3.40;3.10;;;;;;;22.31;100.00;96604.88;4972944;28;20270;-81
2021/08/20 06:57:05;;;;;;;4.60;4.07;;;;;;;22.54;100.00;96607.66;4974494;28;20594;-81
2021/08/20 06:59:33;;;;;;;4.77;3.30;;;;;;;22.70;100.00;96608.06;4976968;28;20217;-80
2021/08/20 07:02:00;;;;;;;4.23;3.60;;;;;;;22.92;100.00;96613.75;4976922;28;20232;-81
2021/08/20 07:04:27;;;;;;;3.90;3.60;;;;;;;23.14;100.00;96608.69;4976764;28;20666;-81
2021/08/20 07:06:55;;;;;;;4.33;3.47;;;;;;;22.93;100.00;96612.72;4976685;28;20200;-81
2021/08/20 07:09:24;;;;;;;4.10;3.70;;;;;;;23.00;100.00;96619.63;4976707;28;20207;-81
2021/08/20 07:11:53;;;;;;;5.30;3.50;;;;;;;23.43;100.00;96618.56;4976843;28;20201;-81
2021/08/20 07:14:20;;;;;;;4.00;3.20;;;;;;;23.86;100.00;96622.78;4976308;28;20228;-80
2021/08/20 07:16:47;;;;;;;3.67;3.37;;;;;;;23.27;100.00;96619.22;4976792;28;20619;-80
2021/08/20 07:19:14;;;;;;;4.03;3.47;;;;;;;23.48;100.00;96626.75;4976465;28;20197;-81
2021/08/20 07:21:41;;;;;;;4.07;3.67;;;;;;;23.93;100.00;96623.53;4976399;28;20701;-81
2021/08/20 07:24:09;;;;;;;3.00;2.70;;;;;;;24.25;100.00;96638.41;4976397;28;20284;-81
2021/08/20 07:26:36;;;;;;;3.57;3.27;;;;;;;24.62;100.00;96625.50;4976381;28;20201;-81
2021/08/20 07:29:05;;;;;;;3.50;3.17;;;;;;;24.47;100.00;96633.28;4976141;28;20197;-81
2021/08/20 07:31:33;;;;;;;3.53;3.23;;;;;;;24.88;100.00;96624.94;4976298;28;20209;-80
2021/08/20 07:34:00;;;;;;;3.70;3.40;;;;;;;25.27;100.00;96632.38;4976024;28;20713;-81
2021/08/20 07:36:27;;;;;;;4.27;3.43;;;;;;;25.30;100.00;96632.69;4976104;28;20211;-81
2021/08/20 07:38:54;;;;;;;3.87;3.43;;;;;;;25.74;100.00;96632.06;4975965;28;20207;-81
2021/08/20 07:41:22;;;;;;;3.70;3.40;;;;;;;25.82;100.00;96640.56;4976455;28;20288;-81
2021/08/20 07:43:49;;;;;;;3.37;3.10;;;;;;;26.23;100.00;96634.94;4975548;28;20630;-81
2021/08/20 07:46:18;;;;;;;4.33;3.23;;;;;;;25.96;100.00;96635.66;4976040;28;20205;-81
2021/08/20 07:48:45;;;;;;;3.97;3.03;;;;;;;25.60;100.00;96628.91;4975866;28;20694;-81
2021/08/20 07:51:12;;;;;;;4.20;3.00;;;;;;;25.54;100.00;96632.56;4975971;28;20692;-81
2021/08/20 07:53:39;;;;;;;3.20;2.80;;;;;;;26.47;100.00;96627.47;4975915;28;20224;-81
2021/08/20 07:56:06;;;;;;;2.97;2.77;;;;;;;26.91;100.00;96625.53;4975653;28;20240;-81
2021/08/20 07:58:33;;;;;;;4.03;3.08;;;;;;;27.37;100.00;96625.22;4975656;28;20208;-81
2021/08/20 08:01:01;;;;;;;3.03;2.80;;;;;;;27.63;100.00;96618.94;4975804;28;20678;-82
2021/08/20 08:03:29;;;;;;;2.70;2.50;;;;;;;27.53;100.00;96623.44;4975839;28;20291;-81
2021/08/20 08:05:57;;;;;;;4.00;3.28;;;;;;;26.56;100.00;96628.66;4975434;28;20201;-81
2021/08/20 08:08:24;;;;;;;2.88;2.67;;;;;;;26.83;100.00;96627.88;4974169;28;20205;-81
2021/08/20 08:10:51;;;;;;;3.85;2.95;;;;;;;27.20;100.00;96628.84;4975592;28;20207;-81
2021/08/20 08:13:18;;;;;;;2.95;2.67;;;;;;;26.83;100.00;96622.50;4975231;28;20201;-82
2021/08/20 08:15:45;;;;;;;2.55;2.30;;;;;;;26.61;100.00;96636.00;4975266;28;20201;-81
2021/08/20 08:18:13;;;;;;;4.20;2.80;;;;;;;26.50;100.00;96629.69;4975275;28;20204;-81
2021/08/20 08:20:41;;;;;;;3.50;2.78;;;;;;;27.23;100.00;96627.53;4975430;28;20291;-82
2021/08/20 08:23:09;;;;;;;2.60;2.50;;;;;;;26.50;100.00;96632.38;4975498;28;20590;-81
2021/08/20 08:25:36;;;;;;;3.15;2.85;;;;;;;26.21;100.00;96627.09;4975341;28;20197;-81
2021/08/20 08:28:03;;;;;;;3.17;2.70;;;;;;;26.06;100.00;96622.34;4975204;28;20200;-82
2021/08/20 08:30:36;;;;;;;3.35;3.03;;;;;;;26.05;100.00;96622.59;4975305;28;20240;-81
2021/08/20 08:33:04;;;;;;;2.92;2.72;;;;;;;26.42;100.00;96624.66;4975363;28;20193;-81
2021/08/20 08:35:31;;;;;;;3.25;2.95;;;;;;;25.68;100.00;96617.72;4975057;28;20225;-82
2021/08/20 08:38:08;;;;;;;3.83;3.53;;;;;;;26.08;100.00;96627.47;4975129;28;20201;-82
2021/08/20 08:40:36;;;;;;;4.22;3.17;;;;;;;26.85;100.00;96613.09;4975107;28;20287;-82
2021/08/20 08:43:05;;;;;;;5.30;3.40;;;;;;;26.85;100.00;96612.28;4974643;28;20247;-81
2021/08/20 08:45:32;;;;;;;3.40;3.10;;;;;;;27.21;100.00;96616.97;4974966;28;20589;-82
2021/08/20 08:48:03;;;;;;;3.97;3.38;;;;;;;27.34;100.00;96615.75;4974625;28;20197;-82
2021/08/20 08:50:31;;;;;;;3.88;3.58;;;;;;;28.07;100.00;96613.31;4975104;28;20200;-81
2021/08/20 08:52:58;;;;;;;3.72;3.10;;;;;;;28.52;100.00;96613.84;4974657;28;20247;-82
2021/08/20 08:55:27;;;;;;;7.80;3.40;;;;;;;28.03;100.00;96620.31;4974696;28;20311;-82
2021/08/20 08:57:55;;;;;;;4.97;3.35;;;;;;;28.62;100.00;96617.38;4974641;28;20594;-82
2021/08/20 09:00:32;;;;;;;3.58;3.28;;;;;;;27.98;100.00;96622.97;4974414;28;20571;-81
2021/08/20 09:03:00;;;;;;;3.53;3.22;;;;;;;27.02;100.00;96621.91;4974476;28;20280;-81
2021/08/20 09:05:41;;;;;;;3.30;3.00;;;;;;;26.35;100.00;96627.56;4974735;28;20200;-82
2021/08/20 09:08:12;;;;;;;3.58;3.28;;;;;;;25.71;100.00;96621.78;4974521;28;20189;-82
2021/08/20 09:10:49;;;;;;;3.88;3.58;;;;;;;25.37;100.00;96611.84;4974846;28;20264;-82
2021/08/20 09:13:16;;;;;;;4.00;3.63;;;;;;;25.34;100.00;96616.88;4974352;28;20197;-82
2021/08/20 09:15:45;;;;;;;3.47;3.13;;;;;;;25.13;100.00;96621.91;4974284;28;20702;-82
2021/08/20 09:18:21;;;;;;;4.82;3.10;;;;;;;25.70;100.00;96615.59;4973959;28;20205;-81
2021/08/20 09:20:48;;;;;;;4.73;3.40;;;;;;;25.45;100.00;96625.94;4974530;28;20185;-82
2021/08/20 09:23:23;;;;;;;3.30;3.00;;;;;;;25.15;100.00;96613.63;4974425;28;20201;-81
2021/08/20 09:25:53;;;;;;;3.50;3.20;;;;;;;25.13;100.00;96610.34;4974328;28;20220;-82
2021/08/20 09:28:24;;;;;;;3.90;3.60;;;;;;;24.95;100.00;96621.28;4974072;28;20191;-81
2021/08/20 09:31:07;;;;;;;3.93;3.17;;;;;;;25.11;100.00;96621.38;4974419;28;20573;-81
2021/08/20 09:33:36;;;;;;;2.97;2.70;;;;;;;25.08;100.00;96621.81;4973920;28;20189;-81
2021/08/20 09:36:05;;;;;;;3.70;3.27;;;;;;;25.07;100.00;96619.34;4973746;28;20232;-82
2021/08/20 09:38:34;;;;;;;3.60;3.10;;;;;;;25.10;100.00;96616.19;4973822;28;20240;-81
2021/08/20 09:41:05;;;;;;;3.80;3.50;;;;;;;24.86;100.00;96613.59;4973978;28;20704;-82
2021/08/20 09:43:35;;;;;;;3.87;2.97;;;;;;;24.91;100.00;96615.59;4973437;28;20243;-82
2021/08/20 09:46:06;;;;;;;3.70;3.40;;;;;;;25.21;100.00;96612.63;4973837;28;20201;-82
2021/08/20 09:48:48;;;;;;;3.10;2.80;;;;;;;25.03;100.00;96612.81;4974043;28;20397;-81
2021/08/20 09:51:35;;;;;;;3.43;3.13;;;;;;;25.56;100.00;96608.88;4973825;28;20186;-82
2021/08/20 09:54:03;;;;;;;3.73;3.03;;;;;;;25.69;100.00;96613.94;4973730;28;20324;-82
2021/08/20 09:56:33;;;;;;;3.33;2.90;;;;;;;26.22;100.00;96617.97;4973631;28;20197;-81
2021/08/20 09:59:02;;;;;;;3.63;3.33;;;;;;;26.09;100.00;96613.75;4973473;28;20778;-81
2021/08/20 10:01:31;;;;;;;4.80;3.10;;;;;;;25.65;100.00;96612.81;4973641;28;20200;-81
2021/08/20 10:04:00;;;;;;;3.30;3.03;;;;;;;25.57;100.00;96597.91;4973260;28;20197;-81
2021/08/20 10:06:31;;;;;;;3.95;3.58;;;;;;;25.56;100.00;96592.75;4973456;28;20200;-81
2021/08/20 10:09:01;;;;;;;2.97;2.77;;;;;;;25.35;100.00;96600.50;4973345;28;20200;-81
2021/08/20 10:11:30;;;;;;;4.20;3.17;;;;;;;25.03;100.00;96600.19;4973497;28;20197;-81
2021/08/20 10:14:02;;;;;;;3.10;2.90;;;;;;;24.91;100.00;96592.19;4973437;28;20260;-81
2021/08/20 10:16:32;;;;;;;9.57;4.00;;;;;;;24.89;100.00;96588.09;4973779;28;20192;-82
2021/08/20 10:19:01;;;;;;;3.13;2.83;;;;;;;24.90;100.00;96585.19;4973096;28;20733;-82
2021/08/20 10:21:30;;;;;;;3.43;3.03;;;;;;;24.97;100.00;96589.59;4973484;28;20209;-81
2021/08/20 10:23:57;;;;;;;3.30;2.97;;;;;;;25.30;100.00;96591.53;4973083;28;20197;-81
2021/08/20 10:26:26;;;;;;;3.38;3.08;;;;;;;25.83;100.00;96587.53;4973307;28;20197;-81
2021/08/20 10:28:54;;;;;;;3.85;2.90;;;;;;;26.36;100.00;96598.72;4973083;28;20207;-81
2021/08/20 10:31:24;;;;;;;3.50;3.20;;;;;;;26.65;100.00;96596.69;4972503;28;20562;-81
2021/08/20 10:33:52;;;;;;;4.80;3.65;;;;;;;27.11;100.00;96589.84;4972789;28;20197;-81
2021/08/20 10:36:37;;;;;;;3.38;3.17;;;;;;;27.31;100.00;96583.88;4973105;28;20220;-82
2021/08/20 10:39:04;;;;;;;3.67;2.83;;;;;;;27.20;100.00;96579.47;4973058;28;20192;-81
2021/08/20 10:41:32;;;;;;;3.08;2.88;;;;;;;27.25;100.00;96582.19;4973125;28;20235;-82
2021/08/20 10:44:02;;;;;;;3.28;3.00;;;;;;;27.41;100.00;96583.94;4972541;28;20237;-82
2021/08/20 10:47:08;;;;;;;2.83;2.63;;;;;;;27.69;100.00;96582.00;4973026;28;20197;-82
2021/08/20 10:49:45;;;;;;;3.35;3.05;;;;;;;28.12;100.00;96580.09;4973137;28;20189;-82
2021/08/20 10:52:41;;;;;;;3.58;2.75;;;;;;;28.32;100.00;96573.97;4972938;28;20184;-82
2021/08/20 10:55:14;;;;;;;3.25;3.05;;;;;;;28.08;100.00;96576.28;4972702;28;20209;-82
2021/08/20 10:58:01;;;;;;;7.38;3.45;;;;;;;28.12;100.00;96578.19;4972737;28;20205;-82
2021/08/20 11:00:30;;;;;;;3.53;2.92;;;;;;;28.28;100.00;96572.88;4972903;28;20291;-82
2021/08/20 11:02:58;;;;;;;4.25;3.40;;;;;;;28.53;100.00;96569.50;4973089;28;20197;-82
2021/08/20 11:05:45;;;;;;;3.08;2.88;;;;;;;28.72;100.00;96564.41;4972666;28;20287;-82
2021/08/20 11:08:40;;;;;;;3.97;3.20;;;;;;;29.19;100.00;96566.13;4972817;28;20195;-82
2021/08/20 11:11:44;;;;;;;3.85;3.45;;;;;;;28.16;100.00;96560.41;4972935;28;20200;-82
2021/08/20 11:14:35;;;;;;;4.15;3.03;;;;;;;28.35;100.00;96557.22;4972778;28;20192;-82
2021/08/20 11:17:05;;;;;;;3.38;2.83;;;;;;;27.64;100.00;96555.78;4969274;28;20208;-82
2021/08/20 11:19:49;;;;;;;3.58;3.13;;;;;;;27.57;100.00;96559.75;4973089;28;20202;-82
2021/08/20 11:22:23;;;;;;;3.08;2.78;;;;;;;27.78;100.00;96558.88;4972894;28;20197;-82
2021/08/20 11:25:26;;;;;;;3.33;2.33;;;;;;;27.90;100.00;96558.66;4972740;28;20200;-82
2021/08/20 11:28:00;;;;;;;5.68;3.28;;;;;;;28.44;100.00;96552.97;4972272;28;20200;-81
2021/08/20 11:30:27;;;;;;;3.88;3.03;;;;;;;28.58;100.00;96554.09;4973081;28;20190;-82
2021/08/20 11:33:15;;;;;;;3.28;3.00;;;;;;;28.70;100.00;96551.16;4972744;28;20240;-82